Aloha, Washington
Current Conditions -  °F | °C
As of 8:53 PM on Wednesday 26 Nov 2014 (Local Time) from KHQM Reporting Station
Light Rain Light Rain  
Wind Chill: 56°   Ceiling: 1900
Heat Index: 56°   Visibility: 6mi
Dew Point: 53°   Wind: 17mph
Humidity: 90%   Direction: 160°SSE
Pressure: 29.9"   Gusts: 26mph
Location:  47.1899°N, 124.112°W
Report Text: KHQM 270453Z AUTO 16015G23KT 6SM -RA BR OVC019 13/12 A2990 RMK AO2 PK WND 16026/0408 RAB0355E16B32 SLP128 P0001 T01330117
Loading
Personal Weather Stations






























Interactive Weather Map New forecast layout! Learn more

10-Day Weather Forecast

Advertisements
Track Severe Weather on mobile